Time;durP1;ratioP1;P1;durP2;ratioP2;P2;SDS_P1;SDS_P2;PMS_P1;PMS_P2;Temp;Humidity;BMP_temperature;BMP_pressure;BME280_temperature;BME280_humidity;BME280_pressure;Samples;Min_cycle;Max_cycle;Signal;HPM_P1;HPM_P2
2022/05/25 00:00:59;;;;;;;5.25;1.20;;;;;;;;;;5049581;28;20518;-69
2022/05/25 00:03:26;;;;;;;6.25;1.30;;;;;;;;;;5052229;28;20033;-69
2022/05/25 00:05:52;;;;;;;5.25;1.13;;;;;;;;;;5049480;28;20047;-69
2022/05/25 00:08:18;;;;;;;4.43;1.13;;;;;;;;;;5049827;28;20033;-69
2022/05/25 00:10:44;;;;;;;3.97;1.10;;;;;;;;;;5050124;28;20032;-69
2022/05/25 00:13:11;;;;;;;3.53;1.23;;;;;;;;;;5049422;28;20029;-69
2022/05/25 00:15:37;;;;;;;3.97;1.35;;;;;;;;;;5051896;28;20029;-69
2022/05/25 00:18:03;;;;;;;4.10;1.27;;;;;;;;;;5051394;28;20029;-69
2022/05/25 00:20:30;;;;;;;4.20;1.30;;;;;;;;;;5054008;28;20047;-69
2022/05/25 00:22:56;;;;;;;5.68;1.38;;;;;;;;;;5052533;28;20081;-69
2022/05/25 00:25:24;;;;;;;4.60;1.30;;;;;;;;;;5051870;28;20979;-69
2022/05/25 00:27:51;;;;;;;3.90;1.10;;;;;;;;;;5053701;28;20094;-69
2022/05/25 00:30:17;;;;;;;4.22;1.33;;;;;;;;;;5048366;28;20039;-69
2022/05/25 00:32:44;;;;;;;4.13;1.23;;;;;;;;;;5053551;28;20040;-69
2022/05/25 00:35:13;;;;;;;4.93;1.05;;;;;;;;;;5055306;28;20377;-69
2022/05/25 00:37:39;;;;;;;6.00;1.58;;;;;;;;;;5053197;28;20370;-69
2022/05/25 00:40:07;;;;;;;5.25;1.20;;;;;;;;;;5038103;28;20036;-69
2022/05/25 00:42:35;;;;;;;4.43;1.20;;;;;;;;;;5048653;28;20408;-69
2022/05/25 00:45:02;;;;;;;3.80;1.33;;;;;;;;;;5053200;28;20171;-69
2022/05/25 00:47:29;;;;;;;5.25;1.30;;;;;;;;;;5053754;28;20094;-69
2022/05/25 00:49:55;;;;;;;3.88;1.15;;;;;;;;;;5053184;28;20025;-69
2022/05/25 00:52:22;;;;;;;5.75;1.20;;;;;;;;;;5051924;28;20035;-69
2022/05/25 00:54:53;;;;;;;3.05;0.95;;;;;;;;;;5052689;28;20033;-69
2022/05/25 00:57:21;;;;;;;3.15;1.30;;;;;;;;;;5050860;28;20035;-69
2022/05/25 01:00:08;;;;;;;7.68;1.75;;;;;;;;;;5054424;28;20387;-69
2022/05/25 01:02:35;;;;;;;4.30;1.20;;;;;;;;;;5040844;28;20037;-69
2022/05/25 01:05:01;;;;;;;4.82;1.33;;;;;;;;;;5053074;28;20134;-69
2022/05/25 01:07:46;;;;;;;2.85;1.20;;;;;;;;;;5052890;28;20041;-69
2022/05/25 01:10:15;;;;;;;3.40;1.15;;;;;;;;;;5039927;28;20476;-69
2022/05/25 01:12:48;;;;;;;3.80;1.20;;;;;;;;;;5052172;28;20068;-69
2022/05/25 01:15:33;;;;;;;3.63;1.10;;;;;;;;;;5054082;28;20024;-69
2022/05/25 01:18:22;;;;;;;3.58;1.00;;;;;;;;;;5051533;28;20058;-69
2022/05/25 01:20:59;;;;;;;3.80;1.25;;;;;;;;;;4970740;28;20154;-69
2022/05/25 01:23:28;;;;;;;2.88;1.00;;;;;;;;;;4960806;28;20055;-69
2022/05/25 01:25:54;;;;;;;2.20;1.45;;;;;;;;;;4970484;28;20042;-69
2022/05/25 01:28:24;;;;;;;7.57;1.20;;;;;;;;;;4970713;28;20043;-69
2022/05/25 01:30:52;;;;;;;7.50;1.30;;;;;;;;;;4970469;28;20038;-69
2022/05/25 01:33:21;;;;;;;6.25;1.25;;;;;;;;;;4969247;28;20114;-69
2022/05/25 01:36:06;;;;;;;4.15;0.95;;;;;;;;;;4970333;28;20046;-69
2022/05/25 01:38:32;;;;;;;3.80;1.10;;;;;;;;;;4962579;28;20043;-69
2022/05/25 01:41:07;;;;;;;3.28;1.00;;;;;;;;;;4962082;28;20034;-68
2022/05/25 01:43:43;;;;;;;3.55;1.20;;;;;;;;;;4970198;28;20511;-68
2022/05/25 01:46:11;;;;;;;5.63;1.40;;;;;;;;;;4939590;28;20031;-69
2022/05/25 01:48:39;;;;;;;3.28;1.70;;;;;;;;;;4970579;28;20074;-68
2022/05/25 01:51:10;;;;;;;8.13;2.70;;;;;;;;;;4969049;28;20090;-69
2022/05/25 01:53:41;;;;;;;5.05;2.60;;;;;;;;;;4970345;28;20458;-68
2022/05/25 01:56:08;;;;;;;8.18;2.80;;;;;;;;;;4969886;28;20510;-69
2022/05/25 01:58:37;;;;;;;5.15;3.00;;;;;;;;;;5029847;28;20033;-69
2022/05/25 02:01:05;;;;;;;8.25;3.50;;;;;;;;;;5052616;28;20021;-69
2022/05/25 02:06:37;;;;;;;5.60;2.60;;;;;;;;;;5053625;28;20059;-69
2022/05/25 02:09:09;;;;;;;5.32;3.30;;;;;;;;;;5053556;28;20493;-69
2022/05/25 02:11:38;;;;;;;5.00;2.65;;;;;;;;;;5052154;28;20063;-68
2022/05/25 02:14:28;;;;;;;4.88;2.80;;;;;;;;;;5052127;28;20403;-69
2022/05/25 02:17:06;;;;;;;8.02;3.13;;;;;;;;;;4969851;28;20081;-69
2022/05/25 02:19:35;;;;;;;8.25;2.15;;;;;;;;;;4970117;28;20082;-68
2022/05/25 02:22:15;;;;;;;6.13;1.60;;;;;;;;;;4970008;28;20566;-68
2022/05/25 02:24:48;;;;;;;5.05;1.23;;;;;;;;;;4951120;28;20512;-68
2022/05/25 02:27:18;;;;;;;5.35;1.20;;;;;;;;;;4970438;28;20046;-69
2022/05/25 02:29:49;;;;;;;6.32;1.80;;;;;;;;;;4970329;28;20035;-69
2022/05/25 02:32:16;;;;;;;5.13;1.10;;;;;;;;;;4969118;28;20035;-69
2022/05/25 02:34:44;;;;;;;5.30;1.10;;;;;;;;;;4969642;28;20042;-69
2022/05/25 02:37:10;;;;;;;2.88;1.02;;;;;;;;;;4969832;28;20407;-69
2022/05/25 02:39:36;;;;;;;4.00;1.50;;;;;;;;;;4954221;28;20035;-68
2022/05/25 02:42:11;;;;;;;3.10;1.30;;;;;;;;;;4970093;28;20117;-69
2022/05/25 02:44:38;;;;;;;3.88;1.42;;;;;;;;;;4970126;28;20031;-69
2022/05/25 02:47:04;;;;;;;4.50;1.42;;;;;;;;;;4969337;28;20094;-69
2022/05/25 02:49:30;;;;;;;4.45;1.20;;;;;;;;;;4969325;28;20054;-69
2022/05/25 02:51:56;;;;;;;5.60;1.30;;;;;;;;;;4970337;28;20050;-69
2022/05/25 02:54:23;;;;;;;3.88;1.20;;;;;;;;;;5016455;28;20390;-69
2022/05/25 02:56:50;;;;;;;6.57;1.33;;;;;;;;;;5054163;28;20041;-69
2022/05/25 02:59:16;;;;;;;4.00;1.20;;;;;;;;;;5055027;28;20037;-69
2022/05/25 03:01:42;;;;;;;4.00;1.40;;;;;;;;;;5055459;28;20405;-69
2022/05/25 03:04:08;;;;;;;3.67;1.00;;;;;;;;;;5055293;28;20038;-69
2022/05/25 03:06:35;;;;;;;4.70;1.30;;;;;;;;;;5054498;28;20076;-69
2022/05/25 03:09:01;;;;;;;4.50;1.40;;;;;;;;;;5054685;28;20040;-69
2022/05/25 03:11:27;;;;;;;5.63;1.48;;;;;;;;;;5056574;28;20104;-69
2022/05/25 03:13:53;;;;;;;4.07;1.55;;;;;;;;;;5054037;28;20365;-69
2022/05/25 03:16:20;;;;;;;5.43;1.95;;;;;;;;;;5055062;28;20032;-69
2022/05/25 03:18:47;;;;;;;6.15;1.92;;;;;;;;;;5054490;28;20045;-69
2022/05/25 03:21:13;;;;;;;3.75;1.50;;;;;;;;;;5054252;28;20081;-69
2022/05/25 03:23:39;;;;;;;6.57;1.83;;;;;;;;;;5054824;28;20443;-69
2022/05/25 03:26:06;;;;;;;3.95;1.50;;;;;;;;;;5056300;28;20371;-69
2022/05/25 03:28:32;;;;;;;4.10;1.67;;;;;;;;;;5054508;28;20040;-69
2022/05/25 03:30:58;;;;;;;5.95;1.60;;;;;;;;;;5055134;28;20067;-69
2022/05/25 03:33:24;;;;;;;5.07;1.70;;;;;;;;;;5054039;28;20029;-69
2022/05/25 03:35:50;;;;;;;5.82;1.60;;;;;;;;;;5056015;28;20036;-69
2022/05/25 03:38:17;;;;;;;6.30;1.50;;;;;;;;;;5053141;28;20468;-70
2022/05/25 03:40:43;;;;;;;4.47;1.60;;;;;;;;;;5054908;28;20036;-69
2022/05/25 03:43:10;;;;;;;3.85;1.40;;;;;;;;;;5054766;28;20081;-69
2022/05/25 03:45:36;;;;;;;3.58;1.40;;;;;;;;;;5053902;28;20074;-69
2022/05/25 03:48:07;;;;;;;3.60;1.40;;;;;;;;;;5055821;28;20029;-69
2022/05/25 03:50:33;;;;;;;5.85;1.40;;;;;;;;;;5056041;28;20105;-69
2022/05/25 03:53:00;;;;;;;5.05;1.55;;;;;;;;;;5054468;28;20531;-69
2022/05/25 03:55:26;;;;;;;4.80;1.63;;;;;;;;;;5054019;28;20037;-69
2022/05/25 03:57:52;;;;;;;4.57;1.40;;;;;;;;;;5054741;28;20116;-69
2022/05/25 04:00:18;;;;;;;6.65;1.50;;;;;;;;;;5054141;28;20377;-69
2022/05/25 04:02:48;;;;;;;5.82;1.60;;;;;;;;;;5053883;28;20083;-69
2022/05/25 04:05:14;;;;;;;3.00;1.40;;;;;;;;;;5055535;28;20037;-69
2022/05/25 04:07:42;;;;;;;5.85;1.50;;;;;;;;;;5053686;28;20045;-69
2022/05/25 04:10:12;;;;;;;4.97;1.60;;;;;;;;;;5054281;28;20408;-69
2022/05/25 04:12:39;;;;;;;4.97;1.30;;;;;;;;;;5051784;28;20385;-69
2022/05/25 04:15:05;;;;;;;3.50;1.48;;;;;;;;;;5053198;28;20503;-69
2022/05/25 04:17:34;;;;;;;3.97;1.45;;;;;;;;;;5054083;28;20037;-69
2022/05/25 04:20:01;;;;;;;7.13;1.58;;;;;;;;;;5053270;28;20025;-69
2022/05/25 04:22:29;;;;;;;5.43;1.42;;;;;;;;;;5052045;28;20859;-69
2022/05/25 04:24:55;;;;;;;2.38;1.40;;;;;;;;;;5053364;28;20040;-69
2022/05/25 04:27:21;;;;;;;4.32;1.20;;;;;;;;;;5053233;28;20041;-69
2022/05/25 04:29:47;;;;;;;3.42;1.30;;;;;;;;;;5053817;28;20512;-69
2022/05/25 04:32:14;;;;;;;3.72;1.40;;;;;;;;;;5053768;28;20025;-69
2022/05/25 04:34:40;;;;;;;4.72;1.30;;;;;;;;;;5053454;28;20035;-69
2022/05/25 04:39:51;;;;;;;4.60;1.80;;;;;;;;;;5051911;28;20032;-69
2022/05/25 04:42:17;;;;;;;6.20;1.20;;;;;;;;;;5050837;28;20587;-69
2022/05/25 04:44:43;;;;;;;2.40;1.20;;;;;;;;;;5055062;28;20033;-69
2022/05/25 04:47:09;;;;;;;4.85;1.40;;;;;;;;;;5053567;28;20033;-69
2022/05/25 04:49:36;;;;;;;4.43;1.20;;;;;;;;;;5053081;28;20378;-69
2022/05/25 04:52:03;;;;;;;3.10;1.20;;;;;;;;;;5053850;28;20028;-69
2022/05/25 04:54:29;;;;;;;5.30;1.38;;;;;;;;;;5053080;28;20029;-69
2022/05/25 04:59:40;;;;;;;7.97;1.50;;;;;;;;;;5053470;28;20413;-69
2022/05/25 05:02:06;;;;;;;5.03;1.30;;;;;;;;;;5052510;28;20037;-67
2022/05/25 05:04:32;;;;;;;6.20;1.33;;;;;;;;;;5052926;28;20035;-66
2022/05/25 05:06:58;;;;;;;3.17;1.10;;;;;;;;;;5051491;28;20061;-66
2022/05/25 05:09:24;;;;;;;4.18;1.40;;;;;;;;;;5050626;28;20040;-67
2022/05/25 05:11:50;;;;;;;4.60;1.60;;;;;;;;;;5052184;28;20028;-67
2022/05/25 05:14:16;;;;;;;4.95;1.15;;;;;;;;;;5049696;28;20044;-67
2022/05/25 05:16:42;;;;;;;6.47;1.20;;;;;;;;;;5049628;28;20025;-67
2022/05/25 05:19:09;;;;;;;5.47;1.30;;;;;;;;;;5048786;28;20037;-68
2022/05/25 05:21:35;;;;;;;3.20;1.35;;;;;;;;;;5051892;28;20025;-69
2022/05/25 05:24:02;;;;;;;3.70;1.20;;;;;;;;;;5051728;28;20036;-68
2022/05/25 05:26:28;;;;;;;5.32;1.23;;;;;;;;;;5053525;28;20485;-67
2022/05/25 05:28:54;;;;;;;5.43;1.52;;;;;;;;;;5051997;28;20036;-68
2022/05/25 05:31:20;;;;;;;3.60;1.27;;;;;;;;;;5052543;28;20463;-67
2022/05/25 05:33:47;;;;;;;3.20;1.20;;;;;;;;;;5051324;28;20064;-67
2022/05/25 05:36:18;;;;;;;3.90;1.10;;;;;;;;;;5052370;28;20044;-67
2022/05/25 05:38:56;;;;;;;1.85;1.00;;;;;;;;;;5052311;28;20446;-66
2022/05/25 05:41:24;;;;;;;3.67;0.90;;;;;;;;;;5052112;28;20509;-66
2022/05/25 05:43:52;;;;;;;5.47;1.50;;;;;;;;;;5052294;28;20021;-66
2022/05/25 05:46:18;;;;;;;3.65;1.13;;;;;;;;;;5054507;28;20115;-66
2022/05/25 05:48:44;;;;;;;3.58;1.33;;;;;;;;;;5051145;28;20029;-66
2022/05/25 05:51:11;;;;;;;3.85;1.00;;;;;;;;;;5051664;28;20040;-67
2022/05/25 05:53:38;;;;;;;5.05;1.30;;;;;;;;;;5052384;28;20044;-67
2022/05/25 05:56:04;;;;;;;3.58;1.13;;;;;;;;;;5051356;28;20021;-66
2022/05/25 05:58:30;;;;;;;4.45;1.10;;;;;;;;;;5051726;28;20082;-66
2022/05/25 06:00:57;;;;;;;6.47;1.20;;;;;;;;;;5051650;28;20808;-66
2022/05/25 06:03:23;;;;;;;8.20;1.30;;;;;;;;;;5050769;28;20341;-66
2022/05/25 06:05:49;;;;;;;4.13;1.30;;;;;;;;;;5052198;28;20429;-66
2022/05/25 06:08:18;;;;;;;3.83;1.10;;;;;;;;;;5052185;28;20044;-66
2022/05/25 06:10:44;;;;;;;3.88;1.00;;;;;;;;;;5053391;28;20027;-66
2022/05/25 06:13:11;;;;;;;9.50;1.08;;;;;;;;;;5051521;28;20057;-66
2022/05/25 06:21:09;;;;;;;10.40;1.27;;;;;;;;;;5051841;28;20087;-66
2022/05/25 06:23:35;;;;;;;4.05;1.00;;;;;;;;;;5051254;28;20031;-66
2022/05/25 06:26:01;;;;;;;5.13;1.13;;;;;;;;;;5051036;28;20032;-66
2022/05/25 06:28:27;;;;;;;5.68;0.80;;;;;;;;;;5055896;28;20154;-66
2022/05/25 06:30:54;;;;;;;3.85;1.05;;;;;;;;;;5054989;28;20522;-68
2022/05/25 06:33:20;;;;;;;3.35;1.08;;;;;;;;;;5053513;28;20040;-67
2022/05/25 06:35:46;;;;;;;5.50;1.30;;;;;;;;;;5053958;28;20463;-67
2022/05/25 06:38:12;;;;;;;4.35;1.15;;;;;;;;;;5055537;28;20130;-67
2022/05/25 06:40:38;;;;;;;7.35;1.00;;;;;;;;;;5057236;28;20033;-68
2022/05/25 06:43:05;;;;;;;10.48;1.20;;;;;;;;;;5055773;28;20048;-67
2022/05/25 06:45:31;;;;;;;7.65;1.67;;;;;;;;;;5054719;28;20036;-67
2022/05/25 06:47:58;;;;;;;5.78;1.00;;;;;;;;;;5056104;28;20080;-68
2022/05/25 06:50:26;;;;;;;4.57;1.10;;;;;;;;;;5056441;28;20044;-67
2022/05/25 06:52:52;;;;;;;2.60;1.02;;;;;;;;;;5055521;28;20121;-67
2022/05/25 06:55:18;;;;;;;4.72;1.13;;;;;;;;;;5055314;28;20033;-68
2022/05/25 06:57:44;;;;;;;5.93;1.00;;;;;;;;;;5054052;28;20477;-67
2022/05/25 07:00:11;;;;;;;3.08;1.00;;;;;;;;;;5054041;28;20048;-67
2022/05/25 07:02:37;;;;;;;8.82;1.25;;;;;;;;;;5050847;28;20059;-68
2022/05/25 07:05:04;;;;;;;5.90;1.20;;;;;;;;;;5052297;28;20033;-68
2022/05/25 07:07:31;;;;;;;4.45;1.00;;;;;;;;;;5050123;28;20391;-68
2022/05/25 07:09:57;;;;;;;8.23;1.23;;;;;;;;;;5049887;28;20039;-68
2022/05/25 07:12:24;;;;;;;7.47;1.05;;;;;;;;;;5048937;28;20028;-68
2022/05/25 07:14:50;;;;;;;3.30;1.23;;;;;;;;;;5049919;28;20044;-68
2022/05/25 07:17:16;;;;;;;6.18;1.50;;;;;;;;;;5049984;28;20041;-68
2022/05/25 07:19:42;;;;;;;3.30;1.02;;;;;;;;;;5051406;28;20116;-67
2022/05/25 07:22:09;;;;;;;5.32;1.38;;;;;;;;;;5049753;28;20358;-68
2022/05/25 07:24:36;;;;;;;7.22;1.77;;;;;;;;;;5045263;28;20386;-68
2022/05/25 07:27:02;;;;;;;8.27;1.10;;;;;;;;;;5050706;28;20033;-67
2022/05/25 07:29:28;;;;;;;12.35;1.30;;;;;;;;;;5051088;28;20148;-67
2022/05/25 07:31:57;;;;;;;9.70;1.85;;;;;;;;;;5050850;28;20481;-68
2022/05/25 07:34:28;;;;;;;5.10;1.08;;;;;;;;;;5050402;28;20013;-67
2022/05/25 07:36:56;;;;;;;8.02;1.40;;;;;;;;;;5050881;28;20025;-67
2022/05/25 07:39:24;;;;;;;8.20;1.30;;;;;;;;;;5048459;28;20048;-68
2022/05/25 07:41:52;;;;;;;9.35;1.20;;;;;;;;;;5054410;28;20112;-70
2022/05/25 07:44:21;;;;;;;9.05;1.40;;;;;;;;;;5055584;28;20074;-70
2022/05/25 07:46:49;;;;;;;7.85;1.35;;;;;;;;;;5053279;28;20111;-70
2022/05/25 07:49:15;;;;;;;5.68;1.15;;;;;;;;;;5054237;28;20763;-70
2022/05/25 07:51:41;;;;;;;3.25;1.05;;;;;;;;;;5054291;28;20035;-70
2022/05/25 07:54:09;;;;;;;5.25;1.38;;;;;;;;;;5054036;28;20028;-70
2022/05/25 07:56:37;;;;;;;6.70;1.00;;;;;;;;;;5054752;28;20037;-70
2022/05/25 07:59:04;;;;;;;5.07;1.20;;;;;;;;;;5055441;28;20449;-71
2022/05/25 08:07:05;;;;;;;4.43;1.10;;;;;;;;;;5054921;28;20051;-71
2022/05/25 08:09:32;;;;;;;5.53;1.50;;;;;;;;;;5053610;28;20029;-70
2022/05/25 08:11:59;;;;;;;5.93;1.52;;;;;;;;;;5053857;28;20036;-70
2022/05/25 08:14:26;;;;;;;6.25;1.20;;;;;;;;;;5053378;28;20404;-70
2022/05/25 08:16:53;;;;;;;8.27;1.58;;;;;;;;;;5054239;28;20025;-70
2022/05/25 08:19:19;;;;;;;5.68;1.13;;;;;;;;;;5053840;28;20024;-70
2022/05/25 08:21:46;;;;;;;4.55;1.13;;;;;;;;;;5053256;28;20032;-70
2022/05/25 08:24:13;;;;;;;7.05;1.17;;;;;;;;;;5054871;28;20021;-70
2022/05/25 08:26:39;;;;;;;7.75;1.30;;;;;;;;;;5052639;28;20086;-70
2022/05/25 08:29:06;;;;;;;8.02;1.48;;;;;;;;;;5053871;28;20048;-70
2022/05/25 08:31:32;;;;;;;6.72;1.70;;;;;;;;;;5053756;28;20024;-71
2022/05/25 08:33:58;;;;;;;5.60;1.30;;;;;;;;;;5053608;28;20114;-71
2022/05/25 08:36:24;;;;;;;7.60;1.27;;;;;;;;;;5052912;28;20025;-71
2022/05/25 08:38:52;;;;;;;7.75;1.30;;;;;;;;;;5053982;28;20378;-70
2022/05/25 08:41:21;;;;;;;7.28;1.50;;;;;;;;;;5053532;28;20094;-72
2022/05/25 08:43:48;;;;;;;4.80;1.30;;;;;;;;;;5053394;28;20029;-72
2022/05/25 08:46:17;;;;;;;8.63;1.98;;;;;;;;;;5055283;28;20035;-72
2022/05/25 08:48:43;;;;;;;10.63;1.90;;;;;;;;;;5052406;28;20043;-72
2022/05/25 08:51:15;;;;;;;9.63;1.80;;;;;;;;;;5052986;28;20104;-72
2022/05/25 08:53:41;;;;;;;11.65;1.60;;;;;;;;;;5051876;28;20033;-71
2022/05/25 08:56:16;;;;;;;7.32;1.40;;;;;;;;;;5053228;28;20092;-72
2022/05/25 08:59:02;;;;;;;10.82;2.03;;;;;;;;;;5052908;28;20029;-72
2022/05/25 09:01:31;;;;;;;10.60;2.13;;;;;;;;;;5054317;28;20063;-71
2022/05/25 09:04:03;;;;;;;7.63;1.55;;;;;;;;;;5053253;28;20037;-71
2022/05/25 09:06:58;;;;;;;7.35;1.30;;;;;;;;;;5052403;28;20056;-72
2022/05/25 09:09:41;;;;;;;4.38;1.02;;;;;;;;;;5035550;28;20047;-72
2022/05/25 09:12:30;;;;;;;7.23;1.30;;;;;;;;;;5047905;28;20112;-72
2022/05/25 09:15:02;;;;;;;8.93;1.50;;;;;;;;;;5053268;28;20036;-72
2022/05/25 09:17:41;;;;;;;6.35;1.20;;;;;;;;;;5052742;28;20374;-72
2022/05/25 09:20:08;;;;;;;7.00;1.63;;;;;;;;;;5053237;28;20481;-72
2022/05/25 09:22:35;;;;;;;7.20;1.40;;;;;;;;;;5051666;28;20108;-72
2022/05/25 09:25:02;;;;;;;7.05;1.20;;;;;;;;;;5052817;28;20045;-72
2022/05/25 09:27:31;;;;;;;5.88;1.30;;;;;;;;;;5053230;28;20061;-72
2022/05/25 09:29:59;;;;;;;7.32;1.38;;;;;;;;;;5054199;28;20147;-72
2022/05/25 09:33:04;;;;;;;6.57;1.23;;;;;;;;;;5052344;28;20052;-72
2022/05/25 09:35:30;;;;;;;;;;;;;;;;;;4970653;28;20431;-72
2022/05/25 09:37:56;;;;;;;7.88;1.10;;;;;;;;;;4970687;28;19946;-72
2022/05/25 09:40:22;;;;;;;9.52;1.30;;;;;;;;;;4970388;28;20062;-72
2022/05/25 09:42:52;;;;;;;8.23;1.27;;;;;;;;;;4971286;28;20422;-72
2022/05/25 09:45:19;;;;;;;4.28;0.98;;;;;;;;;;4969099;28;20042;-72
2022/05/25 09:47:47;;;;;;;7.55;1.10;;;;;;;;;;4970210;28;20039;-72
2022/05/25 09:50:27;;;;;;;6.00;1.25;;;;;;;;;;4970313;28;20035;-72
2022/05/25 09:52:54;;;;;;;6.13;1.38;;;;;;;;;;4970460;28;20039;-72
2022/05/25 09:55:33;;;;;;;5.18;1.25;;;;;;;;;;4970233;28;20027;-72
2022/05/25 09:58:07;;;;;;;4.18;1.10;;;;;;;;;;4970024;28;20471;-72
2022/05/25 10:00:34;;;;;;;8.18;1.20;;;;;;;;;;4970516;28;20035;-72
2022/05/25 10:03:06;;;;;;;5.40;1.42;;;;;;;;;;4973730;28;20038;-72
2022/05/25 10:05:34;;;;;;;9.43;1.85;;;;;;;;;;4986812;28;20050;-72
2022/05/25 10:08:07;;;;;;;10.43;1.40;;;;;;;;;;5047705;28;20033;-72
2022/05/25 10:10:34;;;;;;;3.67;1.30;;;;;;;;;;5056296;28;20078;-72
2022/05/25 10:13:25;;;;;;;12.88;1.50;;;;;;;;;;5055914;28;20484;-72
2022/05/25 10:15:54;;;;;;;8.02;1.23;;;;;;;;;;5047206;28;20049;-72
2022/05/25 10:18:52;;;;;;;4.40;1.08;;;;;;;;;;5052633;28;20025;-72
2022/05/25 10:21:26;;;;;;;6.57;1.40;;;;;;;;;;4973736;28;20519;-72
2022/05/25 10:23:52;;;;;;;5.70;1.40;;;;;;;;;;4973132;28;20049;-72
2022/05/25 10:26:25;;;;;;;4.07;1.20;;;;;;;;;;4973487;28;20066;-72
2022/05/25 10:28:56;;;;;;;6.50;1.00;;;;;;;;;;4973040;28;20046;-72
2022/05/25 10:36:57;;;;;;;7.88;1.30;;;;;;;;;;4973721;28;20054;-72
2022/05/25 10:39:25;;;;;;;3.55;1.15;;;;;;;;;;4972327;28;20035;-72
2022/05/25 10:42:06;;;;;;;6.63;1.30;;;;;;;;;;4973630;28;20034;-71
2022/05/25 10:44:53;;;;;;;4.38;1.05;;;;;;;;;;4973179;28;20510;-71
2022/05/25 10:47:42;;;;;;;4.07;1.20;;;;;;;;;;4957534;28;20042;-70
2022/05/25 10:50:12;;;;;;;6.57;1.25;;;;;;;;;;4973042;28;20059;-68
2022/05/25 10:52:41;;;;;;;5.63;1.10;;;;;;;;;;4972750;28;20182;-69
2022/05/25 10:55:08;;;;;;;3.72;1.17;;;;;;;;;;4957229;28;20031;-69
2022/05/25 10:57:53;;;;;;;3.80;1.10;;;;;;;;;;5035742;28;20044;-70
2022/05/25 11:00:19;;;;;;;9.00;1.30;;;;;;;;;;5050979;28;20040;-69
2022/05/25 11:03:04;;;;;;;5.95;1.10;;;;;;;;;;5054931;28;20041;-70
2022/05/25 11:05:33;;;;;;;4.18;1.45;;;;;;;;;;5055200;28;20044;-72
2022/05/25 11:08:11;;;;;;;5.65;1.20;;;;;;;;;;5054878;28;20094;-73
2022/05/25 11:10:41;;;;;;;3.53;1.20;;;;;;;;;;5055075;28;20453;-73
2022/05/25 11:13:26;;;;;;;5.70;1.23;;;;;;;;;;5038383;28;20031;-73
2022/05/25 11:15:55;;;;;;;4.03;1.60;;;;;;;;;;5053035;28;20029;-72
2022/05/25 11:18:40;;;;;;;5.68;1.10;;;;;;;;;;5052803;28;20067;-72
2022/05/25 11:21:06;;;;;;;7.47;1.10;;;;;;;;;;5056121;28;20033;-73
2022/05/25 11:23:38;;;;;;;4.35;1.00;;;;;;;;;;5056110;28;20507;-72
2022/05/25 11:26:13;;;;;;;4.45;1.13;;;;;;;;;;5055791;28;20057;-72
2022/05/25 11:28:42;;;;;;;5.05;1.38;;;;;;;;;;5054181;28;20068;-73
2022/05/25 11:31:27;;;;;;;10.15;1.38;;;;;;;;;;5039082;28;20028;-72
2022/05/25 11:34:12;;;;;;;4.95;1.15;;;;;;;;;;5052965;28;20503;-71
2022/05/25 11:36:51;;;;;;;4.35;1.08;;;;;;;;;;5054026;28;20488;-73
2022/05/25 11:39:28;;;;;;;2.38;0.90;;;;;;;;;;5055641;28;20503;-73
2022/05/25 11:41:57;;;;;;;4.13;1.38;;;;;;;;;;5054902;28;20044;-73
2022/05/25 11:44:23;;;;;;;7.65;1.40;;;;;;;;;;5054539;28;20512;-73
2022/05/25 11:46:50;;;;;;;7.60;1.60;;;;;;;;;;5054274;28;20029;-73
2022/05/25 11:49:30;;;;;;;5.28;1.10;;;;;;;;;;5054799;28;20037;-73
2022/05/25 11:51:56;;;;;;;7.38;1.08;;;;;;;;;;5053880;28;20056;-73
2022/05/25 11:54:28;;;;;;;4.13;0.90;;;;;;;;;;5053896;28;20028;-73
2022/05/25 11:56:54;;;;;;;6.65;1.20;;;;;;;;;;5054290;28;20051;-74
2022/05/25 11:59:39;;;;;;;3.13;0.90;;;;;;;;;;5054001;28;20040;-72
2022/05/25 12:02:25;;;;;;;6.78;1.20;;;;;;;;;;5055349;28;20029;-74
2022/05/25 12:04:53;;;;;;;3.40;1.00;;;;;;;;;;5054797;28;20037;-73
2022/05/25 12:07:38;;;;;;;5.07;1.00;;;;;;;;;;5053793;28;20463;-74
2022/05/25 12:10:04;;;;;;;5.45;1.02;;;;;;;;;;5053397;28;20033;-74
2022/05/25 12:12:51;;;;;;;3.53;1.00;;;;;;;;;;5051981;28;20032;-73
2022/05/25 12:15:20;;;;;;;3.67;1.10;;;;;;;;;;5054216;28;20040;-74
2022/05/25 12:17:52;;;;;;;13.30;1.35;;;;;;;;;;5055048;28;20170;-72
2022/05/25 12:20:30;;;;;;;7.22;1.38;;;;;;;;;;5053392;28;20029;-72
2022/05/25 12:22:58;;;;;;;5.93;1.40;;;;;;;;;;5053768;28;20033;-74
2022/05/25 12:25:25;;;;;;;4.57;1.33;;;;;;;;;;5046657;28;20048;-74
2022/05/25 12:27:53;;;;;;;5.45;1.00;;;;;;;;;;5047818;28;20025;-73
2022/05/25 12:30:22;;;;;;;10.48;1.35;;;;;;;;;;5047799;28;20821;-73
2022/05/25 12:32:51;;;;;;;4.65;1.00;;;;;;;;;;5045417;28;20539;-71
2022/05/25 12:35:18;;;;;;;4.60;1.42;;;;;;;;;;5045173;28;20037;-71
2022/05/25 12:37:45;;;;;;;6.25;1.27;;;;;;;;;;5045223;28;20118;-72
2022/05/25 12:40:13;;;;;;;6.63;0.90;;;;;;;;;;5046102;28;20481;-73
2022/05/25 12:42:41;;;;;;;7.88;1.25;;;;;;;;;;5048050;28;20166;-73
2022/05/25 12:51:05;;;;;;;8.50;1.20;;;;;;;;;;5045424;28;20463;-73
2022/05/25 12:53:34;;;;;;;5.68;0.95;;;;;;;;;;5044969;28;20037;-74
2022/05/25 12:56:00;;;;;;;8.43;1.17;;;;;;;;;;5048376;28;20032;-74
2022/05/25 12:58:32;;;;;;;6.63;1.10;;;;;;;;;;5048917;28;20314;-70
2022/05/25 13:01:09;;;;;;;5.15;1.00;;;;;;;;;;5050336;28;20061;-74
2022/05/25 13:03:35;;;;;;;6.28;1.67;;;;;;;;;;5052339;28;20485;-73
2022/05/25 13:06:02;;;;;;;6.15;1.25;;;;;;;;;;5051419;28;20064;-72
2022/05/25 13:08:50;;;;;;;5.47;0.95;;;;;;;;;;5047860;28;20041;-70
2022/05/25 13:11:34;;;;;;;4.35;1.10;;;;;;;;;;5049320;28;20451;-72
2022/05/25 13:14:22;;;;;;;6.70;1.05;;;;;;;;;;5047635;28;20020;-71
2022/05/25 13:16:48;;;;;;;3.38;1.10;;;;;;;;;;5048231;28;20029;-72
2022/05/25 13:19:32;;;;;;;6.68;1.10;;;;;;;;;;5049577;28;20016;-71
2022/05/25 13:22:02;;;;;;;16.70;1.42;;;;;;;;;;5048264;28;20124;-72
2022/05/25 13:24:32;;;;;;;7.97;1.15;;;;;;;;;;5047180;28;20033;-72
2022/05/25 13:27:14;;;;;;;7.90;1.20;;;;;;;;;;5048228;28;20033;-72
2022/05/25 13:29:43;;;;;;;6.88;1.00;;;;;;;;;;5047996;28;20036;-71
2022/05/25 13:32:33;;;;;;;6.40;1.10;;;;;;;;;;5047246;28;20036;-71
2022/05/25 13:35:02;;;;;;;4.80;1.02;;;;;;;;;;5049464;28;20442;-71
2022/05/25 13:37:31;;;;;;;7.72;1.10;;;;;;;;;;5047171;28;20021;-70
2022/05/25 13:39:58;;;;;;;4.90;1.10;;;;;;;;;;5047986;28;20036;-71
2022/05/25 13:42:24;;;;;;;5.05;1.05;;;;;;;;;;5048048;28;20033;-70
2022/05/25 13:44:54;;;;;;;3.15;1.10;;;;;;;;;;5046263;28;20044;-71
2022/05/25 13:47:24;;;;;;;2.15;0.93;;;;;;;;;;5045548;28;20026;-73
2022/05/25 13:49:52;;;;;;;4.35;1.33;;;;;;;;;;5047919;28;20033;-71
2022/05/25 13:52:21;;;;;;;5.68;1.15;;;;;;;;;;5049327;28;20025;-71
2022/05/25 13:54:55;;;;;;;7.68;1.40;;;;;;;;;;5050162;28;20025;-71
2022/05/25 13:57:21;;;;;;;;;;;;;;;;;;5048957;28;20132;-70
2022/05/25 13:59:47;;;;;;;4.88;1.08;;;;;;;;;;5053816;28;19936;-70
2022/05/25 14:02:18;;;;;;;4.15;1.00;;;;;;;;;;5053446;28;20040;-70
2022/05/25 14:04:45;;;;;;;4.43;1.13;;;;;;;;;;5050382;28;20047;-70
2022/05/25 14:07:30;;;;;;;4.53;1.40;;;;;;;;;;5052068;28;20098;-70
2022/05/25 14:12:43;;;;;;;8.30;1.35;;;;;;;;;;5047877;28;20102;-70
2022/05/25 14:15:16;;;;;;;6.95;1.23;;;;;;;;;;5051763;28;20053;-70
2022/05/25 14:17:42;;;;;;;;;;;;;;;;;;5053140;28;20035;-71
2022/05/25 14:20:14;;;;;;;4.22;1.20;;;;;;;;;;5051905;28;20380;-70
2022/05/25 14:22:42;;;;;;;7.32;1.33;;;;;;;;;;5052261;28;20028;-71
2022/05/25 14:25:14;;;;;;;3.67;1.20;;;;;;;;;;5036112;28;20519;-71
2022/05/25 14:27:40;;;;;;;7.15;1.55;;;;;;;;;;5048251;28;20035;-70
2022/05/25 14:30:17;;;;;;;8.77;1.13;;;;;;;;;;5053097;28;20509;-71
2022/05/25 14:32:56;;;;;;;6.00;1.00;;;;;;;;;;5052214;28;20428;-71
2022/05/25 14:35:23;;;;;;;5.55;1.00;;;;;;;;;;5051109;28;20068;-70
2022/05/25 14:37:50;;;;;;;6.10;1.25;;;;;;;;;;5053614;28;20032;-70
2022/05/25 14:40:18;;;;;;;5.28;1.23;;;;;;;;;;5052195;28;20021;-71
2022/05/25 14:42:54;;;;;;;6.88;1.20;;;;;;;;;;5052113;28;20021;-70
2022/05/25 14:45:20;;;;;;;4.03;1.30;;;;;;;;;;5051692;28;20052;-71
2022/05/25 14:47:48;;;;;;;7.43;1.45;;;;;;;;;;5053526;28;20033;-69
2022/05/25 14:50:22;;;;;;;6.95;1.17;;;;;;;;;;5050675;28;20592;-70
2022/05/25 14:53:09;;;;;;;4.10;1.10;;;;;;;;;;5054608;28;20032;-71
2022/05/25 14:55:37;;;;;;;6.15;1.17;;;;;;;;;;5049706;28;20025;-71
2022/05/25 14:58:09;;;;;;;3.22;1.10;;;;;;;;;;5050056;28;20464;-73
2022/05/25 15:00:50;;;;;;;3.13;0.80;;;;;;;;;;5050086;28;20079;-73
2022/05/25 15:03:36;;;;;;;3.03;1.20;;;;;;;;;;5047345;28;20040;-74
2022/05/25 15:06:02;;;;;;;3.92;1.08;;;;;;;;;;5043433;28;20029;-74
2022/05/25 15:08:32;;;;;;;5.78;1.50;;;;;;;;;;5044038;28;20051;-72
2022/05/25 15:11:17;;;;;;;4.95;1.00;;;;;;;;;;5046083;28;20079;-75
2022/05/25 15:19:22;;;;;;;3.33;1.05;;;;;;;;;;5036961;28;20048;-73
2022/05/25 15:21:52;;;;;;;6.15;1.20;;;;;;;;;;5049365;28;20120;-73
2022/05/25 15:24:18;;;;;;;5.90;0.95;;;;;;;;;;5049172;28;20041;-74
2022/05/25 15:27:03;;;;;;;3.13;0.90;;;;;;;;;;5045942;28;20033;-71
2022/05/25 15:29:31;;;;;;;8.98;1.10;;;;;;;;;;5043337;28;20047;-73
2022/05/25 15:31:58;;;;;;;8.10;1.25;;;;;;;;;;5045045;28;20041;-73
2022/05/25 15:34:25;;;;;;;4.05;1.10;;;;;;;;;;5044548;28;20033;-73
2022/05/25 15:36:52;;;;;;;6.20;1.10;;;;;;;;;;5044205;28;20029;-76
2022/05/25 15:39:18;;;;;;;2.85;0.90;;;;;;;;;;5047999;28;20025;-74